Time;durP1;ratioP1;P1;durP2;ratioP2;P2;SDS_P1;SDS_P2;PMS_P1;PMS_P2;Temp;Humidity;BMP_temperature;BMP_pressure;BME280_temperature;BME280_humidity;BME280_pressure;Samples;Min_cycle;Max_cycle;Signal;HPM_P1;HPM_P2
2023/03/28 00:01:07;;;;;;;5.20;2.10;;;;;;;0.36;100.00;102616.53;5109677;28;20167;-70
2023/03/28 00:03:35;;;;;;;6.07;2.50;;;;;;;0.29;100.00;102609.09;5109383;28;20042;-70
2023/03/28 00:06:01;;;;;;;6.18;3.30;;;;;;;0.28;100.00;102612.66;5109206;28;20055;-70
2023/03/28 00:08:28;;;;;;;3.75;2.15;;;;;;;0.15;100.00;102600.22;5109531;28;20044;-70
2023/03/28 00:11:05;;;;;;;6.82;2.38;;;;;;;0.22;100.00;102609.44;5089343;28;20039;-69
2023/03/28 00:13:31;;;;;;;5.68;2.08;;;;;;;0.20;100.00;102606.06;5089890;28;20028;-70
2023/03/28 00:16:05;;;;;;;7.05;2.10;;;;;;;0.15;100.00;102605.47;5089759;28;20505;-70
2023/03/28 00:18:31;;;;;;;5.20;2.70;;;;;;;0.16;100.00;102606.34;5089396;28;20486;-70
2023/03/28 00:20:57;;;;;;;11.57;3.45;;;;;;;0.10;100.00;102604.03;5092131;28;20649;-70
2023/03/28 00:23:23;;;;;;;6.22;3.08;;;;;;;0.11;100.00;102597.88;5096577;28;20028;-70
2023/03/28 00:25:49;;;;;;;5.28;2.47;;;;;;;0.09;100.00;102611.06;5102927;28;20502;-70
2023/03/28 00:28:14;;;;;;;3.70;2.03;;;;;;;0.06;100.00;102602.53;5109149;28;20112;-70
2023/03/28 00:30:39;;;;;;;6.68;3.05;;;;;;;0.05;100.00;102608.69;5109123;28;20080;-70
2023/03/28 00:33:05;;;;;;;6.05;2.45;;;;;;;0.04;100.00;102609.63;5109252;28;20044;-70
2023/03/28 00:35:31;;;;;;;9.95;3.72;;;;;;;0.01;100.00;102612.44;5109059;28;20047;-70
2023/03/28 00:37:57;;;;;;;14.98;3.65;;;;;;;0.00;100.00;102611.59;5089467;28;20036;-70
2023/03/28 00:40:26;;;;;;;5.65;2.00;;;;;;;-0.03;100.00;102615.22;5089585;28;20470;-70
2023/03/28 00:42:52;;;;;;;7.65;2.58;;;;;;;-0.08;100.00;102609.38;5093227;28;20398;-70
2023/03/28 00:45:20;;;;;;;5.45;2.53;;;;;;;-0.06;100.00;102612.75;5093336;28;20020;-70
2023/03/28 00:47:54;;;;;;;7.82;3.22;;;;;;;-0.07;100.00;102613.69;5093599;28;20036;-70
2023/03/28 00:50:26;;;;;;;9.00;2.30;;;;;;;-0.13;100.00;102611.41;5093007;28;20475;-70
2023/03/28 00:53:03;;;;;;;5.93;2.15;;;;;;;-0.13;100.00;102614.03;5093186;28;20027;-70
2023/03/28 00:55:37;;;;;;;5.53;2.10;;;;;;;-0.16;100.00;102610.72;5093032;28;20115;-70
2023/03/28 00:58:08;;;;;;;3.80;2.10;;;;;;;-0.23;100.00;102607.59;5093155;28;20107;-70
2023/03/28 01:00:34;;;;;;;10.60;4.53;;;;;;;-0.24;100.00;102613.75;5092826;28;20024;-70
2023/03/28 01:03:02;;;;;;;4.20;1.98;;;;;;;-0.27;100.00;102612.13;5093046;28;20110;-70
2023/03/28 01:05:31;;;;;;;6.25;2.63;;;;;;;-0.29;100.00;102615.75;5092963;28;20028;-70
2023/03/28 01:08:05;;;;;;;5.18;2.55;;;;;;;-0.32;100.00;102613.31;5092782;28;20494;-69
2023/03/28 01:10:32;;;;;;;7.95;2.55;;;;;;;-0.33;100.00;102617.72;5092737;28;20074;-70
2023/03/28 01:12:59;;;;;;;10.82;2.97;;;;;;;-0.32;100.00;102618.56;5092881;28;20032;-70
2023/03/28 01:15:24;;;;;;;7.22;3.20;;;;;;;-0.35;100.00;102614.31;5092785;28;20055;-70
2023/03/28 01:17:50;;;;;;;8.10;2.63;;;;;;;-0.38;100.00;102611.03;5092703;28;20032;-70
2023/03/28 01:20:31;;;;;;;5.78;2.20;;;;;;;-0.39;100.00;102614.56;5092632;28;20032;-70
2023/03/28 01:23:31;;;;;;;9.68;3.38;;;;;;;-0.40;100.00;102611.09;5093874;28;20028;-70
2023/03/28 01:26:05;;;;;;;7.68;2.85;;;;;;;-0.42;100.00;102606.88;5092466;28;20039;-70
2023/03/28 01:28:40;;;;;;;10.18;4.32;;;;;;;-0.48;100.00;102598.41;5074810;28;20032;-70
2023/03/28 01:31:08;;;;;;;6.38;2.90;;;;;;;-0.48;100.00;102601.03;5092697;28;20040;-70
2023/03/28 01:33:56;;;;;;;8.38;3.08;;;;;;;-0.48;100.00;102594.94;5092488;28;20999;-70
2023/03/28 01:36:43;;;;;;;8.70;2.33;;;;;;;-0.48;100.00;102597.56;5092370;28;20047;-70
2023/03/28 01:39:23;;;;;;;4.95;2.47;;;;;;;-0.48;100.00;102594.94;5092225;28;20036;-70
2023/03/28 01:42:07;;;;;;;5.90;3.65;;;;;;;-0.52;100.00;102599.50;5092101;28;20055;-70
2023/03/28 01:44:37;;;;;;;7.75;3.42;;;;;;;-0.55;100.00;102594.44;5092043;28;20475;-70
2023/03/28 01:47:08;;;;;;;7.13;2.60;;;;;;;-0.57;100.00;102593.66;5111916;28;20031;-70
2023/03/28 01:50:01;;;;;;;7.93;3.78;;;;;;;-0.62;100.00;102585.19;5111710;28;20058;-70
2023/03/28 01:53:02;;;;;;;8.63;3.00;;;;;;;-0.57;100.00;102600.69;5090888;28;20165;-70
2023/03/28 01:56:00;;;;;;;4.50;2.38;;;;;;;-0.60;100.00;102599.06;5074062;28;20090;-70
2023/03/28 01:58:40;;;;;;;6.30;2.58;;;;;;;-0.61;100.00;102596.50;5091822;28;20027;-69
2023/03/28 02:01:12;;;;;;;6.28;2.42;;;;;;;-0.65;100.00;102590.59;5091724;28;20031;-70
2023/03/28 02:03:41;;;;;;;7.72;2.95;;;;;;;-0.67;100.00;102582.81;5091801;28;20024;-70
2023/03/28 02:06:08;;;;;;;10.48;3.03;;;;;;;-0.70;100.00;102587.38;5091598;28;20105;-70
2023/03/28 02:08:37;;;;;;;8.35;3.40;;;;;;;-0.71;100.00;102583.03;5091665;28;20115;-69
2023/03/28 02:11:03;;;;;;;4.90;3.00;;;;;;;-0.72;100.00;102589.22;5091485;28;20478;-69
2023/03/28 02:13:35;;;;;;;8.90;3.78;;;;;;;-0.73;100.00;102585.75;5091634;28;20042;-69
2023/03/28 02:16:03;;;;;;;7.53;3.47;;;;;;;-0.72;100.00;102594.47;5111263;28;20109;-70
2023/03/28 02:18:36;;;;;;;15.10;4.00;;;;;;;-0.77;100.00;102588.63;5111112;28;20023;-70
2023/03/28 02:21:06;;;;;;;8.40;3.90;;;;;;;-0.78;100.00;102585.16;5111215;28;20377;-70
2023/03/28 02:23:46;;;;;;;6.65;3.35;;;;;;;-0.79;100.00;102585.22;5111110;28;20142;-70
2023/03/28 02:26:12;;;;;;;6.22;3.72;;;;;;;-0.83;100.00;102586.31;5091468;28;20024;-70
2023/03/28 02:28:38;;;;;;;8.77;3.78;;;;;;;-0.80;100.00;102586.16;5078900;28;20024;-70
2023/03/28 02:31:06;;;;;;;13.23;4.25;;;;;;;-0.81;100.00;102587.94;5091385;28;20067;-70
2023/03/28 02:33:36;;;;;;;13.23;4.75;;;;;;;-0.82;100.00;102578.38;5091575;28;20474;-70
2023/03/28 02:36:20;;;;;;;8.00;3.50;;;;;;;-0.84;100.00;102580.22;5091431;28;20016;-70
2023/03/28 02:38:48;;;;;;;11.38;3.97;;;;;;;-0.84;100.00;102587.22;5091457;28;20024;-70
2023/03/28 02:41:32;;;;;;;10.57;3.55;;;;;;;-0.85;100.00;102586.38;5100922;28;20504;-70
2023/03/28 02:44:12;;;;;;;8.07;4.28;;;;;;;-0.85;100.00;102585.56;5103264;28;20482;-70
2023/03/28 02:46:46;;;;;;;13.18;3.78;;;;;;;-0.87;100.00;102593.47;5091175;28;20028;-69
2023/03/28 02:49:25;;;;;;;11.00;4.55;;;;;;;-0.98;100.00;102570.47;5091125;28;20383;-69
2023/03/28 02:52:13;;;;;;;9.95;3.30;;;;;;;-0.91;100.00;102590.19;5072847;28;20030;-69
2023/03/28 02:55:00;;;;;;;7.35;4.10;;;;;;;-0.92;100.00;102590.25;5091148;28;20028;-70
2023/03/28 02:57:27;;;;;;;8.02;3.63;;;;;;;-0.93;100.00;102585.94;5090747;28;20467;-70
2023/03/28 02:59:54;;;;;;;13.23;4.18;;;;;;;-0.98;100.00;102588.78;5091023;28;20442;-70
2023/03/28 03:02:21;;;;;;;7.40;3.92;;;;;;;-1.00;100.00;102568.84;5098659;28;20471;-70
2023/03/28 03:04:49;;;;;;;12.23;4.75;;;;;;;-0.99;100.00;102578.41;5090387;28;20429;-71
2023/03/28 03:07:16;;;;;;;7.78;3.58;;;;;;;-0.99;100.00;102575.78;5090304;28;20058;-70
2023/03/28 03:09:44;;;;;;;8.73;4.07;;;;;;;-1.00;100.00;102569.69;5090511;28;20040;-70
2023/03/28 03:12:10;;;;;;;8.90;3.85;;;;;;;-1.01;100.00;102569.78;5090456;28;20507;-70
2023/03/28 03:14:35;;;;;;;9.32;3.75;;;;;;;-0.99;100.00;102573.19;5090315;28;20109;-70
2023/03/28 03:17:01;;;;;;;6.63;3.88;;;;;;;-1.03;100.00;102576.84;5090196;28;20039;-70
2023/03/28 03:19:26;;;;;;;16.65;4.65;;;;;;;-1.05;100.00;102574.31;5090354;28;20483;-70
2023/03/28 03:21:53;;;;;;;6.18;3.70;;;;;;;-1.03;100.00;102579.47;5108774;28;20032;-70
2023/03/28 03:24:18;;;;;;;9.48;3.70;;;;;;;-1.11;100.00;102567.63;5090335;28;20036;-70
2023/03/28 03:26:44;;;;;;;15.65;5.20;;;;;;;-1.06;100.00;102583.09;5090564;28;20024;-70
2023/03/28 03:29:09;;;;;;;6.32;3.58;;;;;;;-1.07;100.00;102585.78;5090459;28;20055;-70
2023/03/28 03:31:35;;;;;;;11.02;4.07;;;;;;;-1.08;100.00;102584.09;5090314;28;20058;-70
2023/03/28 03:34:01;;;;;;;9.40;4.18;;;;;;;-1.08;100.00;102576.25;5090475;28;20115;-70
2023/03/28 03:36:29;;;;;;;8.95;4.10;;;;;;;-1.08;100.00;102581.47;5090364;28;20032;-70
2023/03/28 03:38:54;;;;;;;14.30;5.60;;;;;;;-1.10;100.00;102573.72;5090470;28;20359;-70
2023/03/28 03:41:20;;;;;;;10.98;4.47;;;;;;;-1.11;100.00;102579.88;5089874;28;20031;-70
2023/03/28 03:43:45;;;;;;;10.32;4.93;;;;;;;-1.12;100.00;102589.50;5089911;28;20127;-70
2023/03/28 03:46:10;;;;;;;13.80;3.78;;;;;;;-1.12;100.00;102578.19;5089897;28;20035;-70
2023/03/28 03:48:36;;;;;;;9.75;4.65;;;;;;;-1.16;100.00;102576.63;5089834;28;21082;-70
2023/03/28 03:51:01;;;;;;;8.25;4.32;;;;;;;-1.23;100.00;102564.78;5089714;28;20035;-70
2023/03/28 03:53:26;;;;;;;5.90;3.40;;;;;;;-1.15;100.00;102580.97;5089755;28;20043;-70
2023/03/28 03:55:52;;;;;;;12.40;4.35;;;;;;;-1.17;100.00;102583.66;5089872;28;20031;-70
2023/03/28 03:58:17;;;;;;;12.13;4.95;;;;;;;-1.19;100.00;102580.25;5089795;28;20096;-70
2023/03/28 04:00:43;;;;;;;10.18;4.30;;;;;;;-1.21;100.00;102583.88;5090057;28;20032;-70
2023/03/28 04:03:09;;;;;;;7.15;3.85;;;;;;;-1.21;100.00;102578.63;5089981;28;20032;-70
2023/03/28 04:05:34;;;;;;;7.28;3.78;;;;;;;-1.22;100.00;102577.78;5071594;28;20479;-70
2023/03/28 04:08:00;;;;;;;7.20;3.70;;;;;;;-1.22;100.00;102585.66;5096561;28;20058;-70
2023/03/28 04:10:25;;;;;;;11.73;5.60;;;;;;;-1.21;100.00;102579.47;5109088;28;20027;-70
2023/03/28 04:12:51;;;;;;;14.05;4.93;;;;;;;-1.21;100.00;102584.72;5109446;28;20518;-70
2023/03/28 04:15:16;;;;;;;11.15;4.30;;;;;;;-1.21;100.00;102587.34;5109866;28;20028;-70
2023/03/28 04:17:43;;;;;;;12.98;4.20;;;;;;;-1.22;100.00;102582.19;5100923;28;20107;-70
2023/03/28 04:20:10;;;;;;;7.30;4.38;;;;;;;-1.23;100.00;102583.97;5078498;28;20036;-70
2023/03/28 04:22:35;;;;;;;12.98;5.40;;;;;;;-1.20;100.00;102582.97;5105381;28;20378;-70
2023/03/28 04:25:02;;;;;;;8.93;5.03;;;;;;;-1.23;100.00;102580.47;5116065;28;20034;-70
2023/03/28 04:27:30;;;;;;;17.65;5.45;;;;;;;-1.28;100.00;102574.63;5116173;28;20116;-70
2023/03/28 04:29:56;;;;;;;12.98;5.50;;;;;;;-1.21;100.00;102579.47;5096049;28;20407;-70
2023/03/28 04:32:23;;;;;;;11.82;4.70;;;;;;;-1.21;100.00;102573.41;5096072;28;20457;-70
2023/03/28 04:34:49;;;;;;;9.55;5.05;;;;;;;-1.22;100.00;102569.94;5115979;28;20069;-70
2023/03/28 04:37:16;;;;;;;11.25;5.93;;;;;;;-1.24;100.00;102573.56;5115939;28;20165;-70
2023/03/28 04:39:45;;;;;;;10.93;4.95;;;;;;;-1.27;100.00;102563.25;5115928;28;20404;-70
2023/03/28 04:42:12;;;;;;;9.95;5.75;;;;;;;-1.28;100.00;102564.16;5115292;28;20052;-70
2023/03/28 04:44:37;;;;;;;9.93;6.15;;;;;;;-1.28;100.00;102575.50;5096266;28;20046;-70
2023/03/28 04:47:03;;;;;;;11.15;5.53;;;;;;;-1.27;100.00;102568.50;5096176;28;20491;-70
2023/03/28 04:49:28;;;;;;;12.13;6.53;;;;;;;-1.27;100.00;102573.72;5096285;28;20447;-70
2023/03/28 04:51:54;;;;;;;11.43;5.18;;;;;;;-1.29;100.00;102576.41;5098056;28;20028;-70
2023/03/28 04:54:19;;;;;;;9.80;5.95;;;;;;;-1.31;100.00;102578.28;5115884;28;20535;-70
2023/03/28 04:56:49;;;;;;;11.82;4.95;;;;;;;-1.30;100.00;102576.50;5115735;28;20024;-71
2023/03/28 04:59:15;;;;;;;13.77;5.40;;;;;;;-1.31;100.00;102578.28;5111419;28;20051;-70
2023/03/28 05:01:40;;;;;;;13.77;5.97;;;;;;;-1.33;100.00;102580.13;5096000;28;20117;-72
2023/03/28 05:04:06;;;;;;;19.00;6.40;;;;;;;-1.35;100.00;102585.41;5096146;28;20153;-71
2023/03/28 05:06:32;;;;;;;10.60;5.50;;;;;;;-1.37;100.00;102583.78;5095988;28;20133;-72
2023/03/28 05:08:57;;;;;;;15.55;6.95;;;;;;;-1.45;100.00;102567.63;5095807;28;20123;-72
2023/03/28 05:11:23;;;;;;;16.13;7.65;;;;;;;-1.42;100.00;102577.94;5095789;28;20028;-72
2023/03/28 05:13:49;;;;;;;15.90;7.20;;;;;;;-1.38;100.00;102582.94;5095647;28;20040;-72
2023/03/28 05:16:14;;;;;;;15.20;6.68;;;;;;;-1.40;100.00;102587.41;5093141;28;20046;-72
2023/03/28 05:18:39;;;;;;;11.85;5.65;;;;;;;-1.41;100.00;102593.56;5095553;28;20359;-68
2023/03/28 05:21:05;;;;;;;17.73;6.82;;;;;;;-1.39;100.00;102598.72;5095525;28;20028;-73
2023/03/28 05:23:30;;;;;;;14.52;7.13;;;;;;;-1.42;100.00;102593.63;5096451;28;20031;-73
2023/03/28 05:25:57;;;;;;;13.55;7.00;;;;;;;-1.40;100.00;102590.03;5079382;28;20102;-73
2023/03/28 05:28:23;;;;;;;11.93;6.43;;;;;;;-1.37;100.00;102589.03;5093543;28;20031;-74
2023/03/28 05:30:48;;;;;;;17.20;9.07;;;;;;;-1.36;100.00;102599.44;5090293;28;20029;-74
2023/03/28 05:33:14;;;;;;;12.93;7.30;;;;;;;-1.38;100.00;102589.97;5092747;28;20187;-73
2023/03/28 05:35:40;;;;;;;11.68;6.68;;;;;;;-1.36;100.00;102596.81;5092560;28;20016;-73
2023/03/28 05:38:06;;;;;;;15.07;7.15;;;;;;;-1.35;100.00;102595.88;5092911;28;20098;-72
2023/03/28 05:40:31;;;;;;;17.42;9.02;;;;;;;-1.29;100.00;102601.72;5093006;28;20019;-72
2023/03/28 05:42:57;;;;;;;14.18;6.72;;;;;;;-1.28;100.00;102606.03;5093757;28;20088;-70
2023/03/28 05:45:22;;;;;;;17.63;7.53;;;;;;;-1.26;100.00;102604.19;5089805;28;20039;-71
2023/03/28 05:47:54;;;;;;;12.90;6.90;;;;;;;-1.20;100.00;102606.53;5093785;28;20098;-73
2023/03/28 05:50:21;;;;;;;14.18;7.03;;;;;;;-1.22;100.00;102596.13;5093957;28;20076;-73
2023/03/28 05:52:46;;;;;;;14.70;7.93;;;;;;;-1.18;100.00;102602.91;5092385;28;20028;-72
2023/03/28 05:55:12;;;;;;;17.50;8.13;;;;;;;-1.08;100.00;102612.91;5092755;28;20025;-72
2023/03/28 05:57:37;;;;;;;15.10;7.90;;;;;;;-1.04;100.00;102607.44;5091200;28;20039;-72
2023/03/28 06:00:09;;;;;;;21.58;9.02;;;;;;;-1.00;100.00;102608.13;5091883;28;20031;-72
2023/03/28 06:02:35;;;;;;;16.50;8.65;;;;;;;-0.99;100.00;102604.59;5086083;28;20046;-72
2023/03/28 06:05:00;;;;;;;19.85;9.25;;;;;;;-0.93;100.00;102612.13;5088111;28;20489;-72
2023/03/28 06:07:25;;;;;;;14.50;7.63;;;;;;;-0.90;100.00;102606.72;5091856;28;20063;-72
2023/03/28 06:09:51;;;;;;;15.90;7.82;;;;;;;-0.84;100.00;102601.16;5089587;28;20027;-72
2023/03/28 06:12:16;;;;;;;18.13;9.73;;;;;;;-0.68;100.00;102596.00;5090753;28;20038;-71
2023/03/28 06:14:42;;;;;;;18.83;9.18;;;;;;;-0.45;100.00;102592.16;5090895;28;20032;-72
2023/03/28 06:17:07;;;;;;;20.75;9.32;;;;;;;-0.05;100.00;102605.75;5084983;28;20039;-73
2023/03/28 06:19:32;;;;;;;18.77;9.13;;;;;;;0.20;100.00;102599.97;5091445;28;20024;-72
2023/03/28 06:21:58;;;;;;;18.05;9.48;;;;;;;0.40;100.00;102602.31;5091442;28;20114;-72
2023/03/28 06:24:23;;;;;;;23.58;10.07;;;;;;;0.68;100.00;102598.09;5091481;28;20132;-72
2023/03/28 06:26:48;;;;;;;18.17;9.88;;;;;;;0.87;100.00;102592.63;5091249;28;20059;-72
2023/03/28 06:29:15;;;;;;;22.30;8.98;;;;;;;1.01;100.00;102602.31;5102632;28;20039;-72
2023/03/28 06:31:40;;;;;;;19.15;8.98;;;;;;;0.99;100.00;102598.94;5110443;28;20087;-72
2023/03/28 06:34:06;;;;;;;21.05;9.55;;;;;;;1.01;100.00;102604.94;5093625;28;20123;-72
2023/03/28 06:36:31;;;;;;;20.85;9.57;;;;;;;1.08;100.00;102604.50;5091407;28;20111;-72
2023/03/28 06:38:57;;;;;;;19.52;9.23;;;;;;;1.15;100.00;102604.97;5106385;28;20038;-72
2023/03/28 06:41:22;;;;;;;18.90;9.95;;;;;;;1.19;100.00;102609.09;5110589;28;20039;-72
2023/03/28 06:43:48;;;;;;;19.63;10.20;;;;;;;1.31;100.00;102610.16;5110595;28;20024;-73
2023/03/28 06:46:15;;;;;;;18.25;10.80;;;;;;;1.52;100.00;102606.22;5110680;28;20035;-73
2023/03/28 06:48:40;;;;;;;16.83;9.52;;;;;;;1.73;100.00;102606.69;5108383;28;20069;-73
2023/03/28 06:51:05;;;;;;;22.77;9.63;;;;;;;1.85;100.00;102599.78;5110652;28;20066;-73
2023/03/28 06:53:31;;;;;;;16.92;8.63;;;;;;;1.94;100.00;102603.66;5110623;28;20126;-73
2023/03/28 06:55:58;;;;;;;19.02;10.15;;;;;;;1.90;100.00;102607.41;5110597;28;20035;-73
2023/03/28 06:58:24;;;;;;;18.90;9.27;;;;;;;1.82;100.00;102610.50;5110303;28;20015;-73
2023/03/28 07:00:52;;;;;;;23.20;9.50;;;;;;;1.75;100.00;102610.03;5106818;28;20382;-73
2023/03/28 07:03:18;;;;;;;15.70;8.05;;;;;;;1.69;100.00;102599.06;5090684;28;20028;-73
2023/03/28 07:05:44;;;;;;;20.15;9.93;;;;;;;1.77;100.00;102614.38;5090528;28;20386;-72
2023/03/28 07:08:11;;;;;;;16.00;8.07;;;;;;;1.75;100.00;102606.56;5089522;28;20533;-72
2023/03/28 07:10:38;;;;;;;19.63;9.10;;;;;;;1.84;100.00;102606.00;5089365;28;20028;-71
2023/03/28 07:13:04;;;;;;;18.45;8.63;;;;;;;1.89;100.00;102617.09;5089559;28;20035;-70
2023/03/28 07:15:29;;;;;;;16.55;8.60;;;;;;;1.95;100.00;102616.69;5089735;28;20028;-70
2023/03/28 07:17:55;;;;;;;15.75;8.10;;;;;;;2.03;100.00;102615.38;5089610;28;20103;-71
2023/03/28 07:20:22;;;;;;;18.10;8.85;;;;;;;2.11;100.00;102619.19;5071585;28;20485;-70
2023/03/28 07:22:48;;;;;;;18.73;9.32;;;;;;;2.17;100.00;102623.22;5089786;28;20578;-71
2023/03/28 07:25:13;;;;;;;22.75;9.77;;;;;;;2.26;100.00;102625.28;5086792;28;20035;-69
2023/03/28 07:27:38;;;;;;;15.70;8.13;;;;;;;2.36;100.00;102626.38;5070234;28;20060;-70
2023/03/28 07:30:05;;;;;;;23.67;10.93;;;;;;;2.47;100.00;102627.47;5069966;28;20116;-70
2023/03/28 07:32:31;;;;;;;16.40;8.57;;;;;;;2.57;100.00;102628.56;5069827;28;20036;-69
2023/03/28 07:34:57;;;;;;;17.75;9.10;;;;;;;2.62;100.00;102626.47;5070165;28;20081;-69
2023/03/28 07:37:23;;;;;;;16.48;8.57;;;;;;;2.67;100.00;102628.78;5072185;28;20032;-72
2023/03/28 07:39:48;;;;;;;16.77;9.00;;;;;;;2.81;100.00;102634.00;5089185;28;20024;-70
2023/03/28 07:42:14;;;;;;;14.75;8.13;;;;;;;2.96;100.00;102640.91;5089009;28;20073;-70
2023/03/28 07:44:39;;;;;;;17.58;8.40;;;;;;;3.04;100.00;102640.38;5084455;28;20027;-70
2023/03/28 07:47:07;;;;;;;16.00;8.70;;;;;;;3.13;100.00;102641.53;5065318;28;20021;-72
2023/03/28 07:49:33;;;;;;;13.02;6.45;;;;;;;3.24;100.00;102641.66;5068506;28;20027;-72
2023/03/28 07:51:58;;;;;;;14.40;7.75;;;;;;;3.57;100.00;102635.03;5067153;28;20036;-72
2023/03/28 07:54:25;;;;;;;15.90;7.28;;;;;;;4.18;100.00;102631.50;5068094;28;20139;-72
2023/03/28 07:56:52;;;;;;;16.67;6.53;;;;;;;4.64;99.80;102637.00;5074249;28;20032;-68
2023/03/28 07:59:17;;;;;;;15.50;7.13;;;;;;;4.82;98.52;102640.94;5088852;28;20049;-69
2023/03/28 08:01:44;;;;;;;14.75;7.28;;;;;;;4.98;97.21;102635.38;5088706;28;20036;-70
2023/03/28 08:04:11;;;;;;;17.23;8.32;;;;;;;5.03;96.48;102634.03;5088538;28;20548;-67
2023/03/28 08:06:39;;;;;;;14.23;6.50;;;;;;;5.20;95.78;102634.56;5070745;28;20048;-67
2023/03/28 08:09:07;;;;;;;14.60;7.30;;;;;;;5.43;95.26;102632.78;5088977;28;20864;-67
2023/03/28 08:11:33;;;;;;;16.58;7.53;;;;;;;5.60;94.86;102628.81;5088540;28;20421;-67
2023/03/28 08:14:00;;;;;;;13.20;5.65;;;;;;;5.73;93.49;102629.53;5089153;28;20034;-68
2023/03/28 08:16:26;;;;;;;11.88;6.05;;;;;;;5.88;92.10;102640.72;5089015;28;20046;-68
2023/03/28 08:18:51;;;;;;;12.32;5.70;;;;;;;6.14;92.84;102630.75;5088894;28;20024;-67
2023/03/28 08:21:17;;;;;;;13.50;6.13;;;;;;;6.36;92.56;102643.09;5070490;28;20032;-68
2023/03/28 08:23:43;;;;;;;13.85;6.47;;;;;;;6.51;90.09;102638.34;5088568;28;20081;-68
2023/03/28 08:26:09;;;;;;;10.70;5.93;;;;;;;6.53;88.50;102629.31;5088029;28;20367;-69
2023/03/28 08:28:36;;;;;;;13.23;5.10;;;;;;;6.52;86.04;102632.94;5088352;28;20030;-68
2023/03/28 08:31:08;;;;;;;9.18;4.07;;;;;;;6.47;87.88;102634.25;5088301;28;20115;-68
2023/03/28 08:33:34;;;;;;;11.55;4.88;;;;;;;6.50;87.59;102631.38;5088708;28;20398;-68
2023/03/28 08:35:59;;;;;;;8.85;3.85;;;;;;;6.65;87.03;102640.69;5088246;28;20111;-68
2023/03/28 08:38:25;;;;;;;11.07;3.70;;;;;;;6.63;84.05;102636.47;5088572;28;20380;-69
2023/03/28 08:41:16;;;;;;;9.95;3.42;;;;;;;6.68;85.74;102629.84;5088727;28;20035;-68
2023/03/28 08:43:54;;;;;;;9.65;3.53;;;;;;;6.70;84.98;102622.59;5088553;28;20031;-69
2023/03/28 08:46:23;;;;;;;9.77;4.03;;;;;;;6.75;87.14;102619.56;5088457;28;20055;-68
2023/03/28 08:48:51;;;;;;;6.10;2.90;;;;;;;6.77;85.20;102625.59;5088275;28;20028;-68
2023/03/28 08:51:25;;;;;;;6.80;3.55;;;;;;;6.80;83.55;102622.69;5077715;28;20390;-69
2023/03/28 08:54:02;;;;;;;10.80;3.40;;;;;;;6.80;81.84;102609.41;5068726;28;20470;-68
2023/03/28 08:56:30;;;;;;;8.63;4.22;;;;;;;6.81;82.54;102613.75;5086925;28;20704;-68
2023/03/28 08:59:09;;;;;;;11.98;3.65;;;;;;;6.88;81.55;102614.09;5088476;28;20106;-69
2023/03/28 09:01:35;;;;;;;11.00;3.40;;;;;;;6.93;81.46;102614.53;5088592;28;20028;-68
2023/03/28 09:04:01;;;;;;;6.95;2.60;;;;;;;6.90;77.39;102612.16;5091943;28;20040;-69
2023/03/28 09:06:36;;;;;;;7.88;2.63;;;;;;;6.98;77.15;102612.34;5095520;28;20055;-69
2023/03/28 09:09:10;;;;;;;7.38;2.78;;;;;;;7.03;78.63;102605.69;5112812;28;20035;-69
2023/03/28 09:12:01;;;;;;;9.65;2.65;;;;;;;7.07;80.94;102616.03;5112611;28;20348;-69
2023/03/28 09:14:45;;;;;;;10.43;3.28;;;;;;;7.16;80.78;102609.94;5112590;28;20055;-69
2023/03/28 09:17:28;;;;;;;4.80;2.13;;;;;;;7.15;80.77;102605.59;5112337;28;20027;-69
2023/03/28 09:20:12;;;;;;;5.95;3.45;;;;;;;7.08;78.38;102602.63;5112344;28;20462;-68
2023/03/28 09:23:02;;;;;;;13.25;2.42;;;;;;;7.08;77.28;102615.06;5112282;28;20028;-69
2023/03/28 09:26:06;;;;;;;6.43;3.53;;;;;;;7.10;77.48;102602.50;5112120;28;20073;-69
2023/03/28 09:29:01;;;;;;;6.63;2.38;;;;;;;7.18;76.97;102600.88;5111811;28;20030;-69
2023/03/28 09:31:31;;;;;;;5.05;1.80;;;;;;;7.10;74.47;102602.50;5112078;28;20028;-69
2023/03/28 09:33:59;;;;;;;3.87;1.87;;;;;;;7.07;73.58;102608.91;5112048;28;20039;-69
2023/03/28 09:36:30;;;;;;;5.82;2.15;;;;;;;7.04;74.97;102595.91;5111869;28;20489;-69
2023/03/28 09:39:32;;;;;;;4.45;2.47;;;;;;;7.12;77.80;102593.44;5111185;28;20020;-69
2023/03/28 09:42:04;;;;;;;2.05;1.50;;;;;;;7.04;73.05;102601.19;5060103;28;20036;-73
2023/03/28 09:44:38;;;;;;;7.07;1.98;;;;;;;7.09;74.13;102582.25;5092082;28;20028;-73
2023/03/28 09:47:10;;;;;;;9.48;2.25;;;;;;;7.13;73.20;102597.78;5092181;28;20024;-73
2023/03/28 09:49:35;;;;;;;4.72;1.95;;;;;;;7.21;73.37;102594.47;5091916;28;20578;-73
2023/03/28 09:52:11;;;;;;;6.38;2.80;;;;;;;7.23;71.35;102593.38;5109821;28;20114;-73
2023/03/28 09:54:40;;;;;;;5.15;2.20;;;;;;;7.24;70.20;102588.91;5111493;28;20063;-73
2023/03/28 09:57:05;;;;;;;7.15;2.05;;;;;;;7.30;70.38;102590.19;5111366;28;20110;-73
2023/03/28 09:59:33;;;;;;;6.55;2.72;;;;;;;7.25;72.36;102566.69;5111718;28;20127;-73
2023/03/28 10:02:01;;;;;;;5.25;2.72;;;;;;;7.26;70.32;102573.69;5093087;28;20050;-69
2023/03/28 10:04:26;;;;;;;5.85;1.83;;;;;;;7.30;69.72;102568.94;5111671;28;20486;-69
2023/03/28 10:06:53;;;;;;;6.82;1.92;;;;;;;7.32;70.38;102561.69;5111692;28;20139;-69
2023/03/28 10:09:23;;;;;;;1.73;1.30;;;;;;;7.36;72.40;102558.66;5111772;28;20140;-69
2023/03/28 10:11:55;;;;;;;4.40;2.58;;;;;;;7.30;70.25;102564.47;5091375;28;20031;-69
2023/03/28 10:14:41;;;;;;;5.60;1.77;;;;;;;7.34;71.70;102568.56;5090795;28;20016;-69
2023/03/28 10:17:06;;;;;;;3.67;1.50;;;;;;;7.34;70.53;102557.94;5091704;28;20036;-69
2023/03/28 10:19:35;;;;;;;9.10;1.90;;;;;;;7.33;69.86;102548.28;5092055;28;20024;-68
2023/03/28 10:22:19;;;;;;;5.45;2.08;;;;;;;7.40;70.79;102540.63;5091546;28;20024;-69
2023/03/28 10:24:46;;;;;;;7.80;1.20;;;;;;;7.49;69.80;102534.50;5091391;28;20050;-69
2023/03/28 10:27:22;;;;;;;6.85;2.15;;;;;;;7.63;71.06;102528.00;5091600;28;20024;-69
2023/03/28 10:29:51;;;;;;;8.07;1.98;;;;;;;7.72;70.13;102524.50;5091364;28;20441;-68
2023/03/28 10:32:30;;;;;;;8.00;2.05;;;;;;;7.87;69.25;102514.34;5091452;28;20039;-68
2023/03/28 10:35:02;;;;;;;8.88;3.15;;;;;;;7.86;66.68;102518.81;5091329;28;20063;-69
2023/03/28 10:37:30;;;;;;;4.78;1.67;;;;;;;7.86;68.28;102529.44;5091246;28;20453;-69
2023/03/28 10:40:06;;;;;;;5.35;1.70;;;;;;;7.94;67.70;102522.59;5091259;28;20024;-69
2023/03/28 10:42:45;;;;;;;5.10;1.80;;;;;;;8.05;69.11;102518.00;5110869;28;20114;-69
2023/03/28 10:45:29;;;;;;;6.85;1.77;;;;;;;8.15;68.61;102504.72;5110488;28;20110;-69
2023/03/28 10:47:59;;;;;;;3.75;2.40;;;;;;;8.11;65.80;102498.81;5110685;28;20514;-69
2023/03/28 10:50:36;;;;;;;5.10;1.85;;;;;;;8.16;65.62;102489.63;5110421;28;20110;-68
2023/03/28 10:53:23;;;;;;;7.80;3.30;;;;;;;8.42;67.54;102500.53;5110592;28;20039;-68
2023/03/28 10:56:26;;;;;;;3.03;1.90;;;;;;;8.54;66.44;102494.06;5092295;28;20023;-68
2023/03/28 10:58:57;;;;;;;6.40;2.85;;;;;;;8.45;63.95;102490.44;5109729;28;20050;-68
2023/03/28 11:01:47;;;;;;;4.13;1.90;;;;;;;8.39;62.57;102484.84;5110261;28;20035;-69
2023/03/28 11:04:44;;;;;;;5.85;2.15;;;;;;;8.31;65.00;102486.38;5109390;28;20040;-69
2023/03/28 11:07:15;;;;;;;7.68;1.95;;;;;;;8.20;63.91;102475.03;5109921;28;20067;-69
2023/03/28 11:09:55;;;;;;;3.95;1.90;;;;;;;8.30;64.83;102487.34;5110090;28;20702;-69
2023/03/28 11:12:33;;;;;;;4.85;2.45;;;;;;;8.42;63.44;102489.91;5110384;28;20038;-69
2023/03/28 11:15:15;;;;;;;5.60;1.65;;;;;;;8.62;65.91;102474.72;5110111;28;20020;-69
2023/03/28 11:17:43;;;;;;;7.63;2.08;;;;;;;8.73;61.76;102464.78;5109962;28;20051;-69
2023/03/28 11:20:16;;;;;;;5.43;1.77;;;;;;;8.80;61.34;102462.38;5110309;28;20110;-69
2023/03/28 11:22:58;;;;;;;4.43;1.92;;;;;;;8.85;64.16;102459.28;5109714;28;20043;-69
2023/03/28 11:25:38;;;;;;;;;;;;;;;8.89;66.25;102463.34;5109579;28;20020;-68
2023/03/28 11:28:18;;;;;;;3.67;1.73;;;;;;;8.70;63.12;102443.78;5109882;28;19915;-72
2023/03/28 11:30:48;;;;;;;5.22;2.20;;;;;;;8.51;61.75;102434.06;5109775;28;20876;-69
2023/03/28 11:33:20;;;;;;;4.85;1.70;;;;;;;8.28;56.17;102430.03;5109724;28;20110;-69